Time;durP1;ratioP1;P1;durP2;ratioP2;P2;SDS_P1;SDS_P2;PMS_P1;PMS_P2;Temp;Humidity;BMP_temperature;BMP_pressure;BME280_temperature;BME280_humidity;BME280_pressure;Samples;Min_cycle;Max_cycle;Signal;HPM_P1;HPM_P2
2024/04/16 00:01:54;;;;;;;;;;;;;;;-144.99;100.00;52456.25;5375086;26;20337;-67
2024/04/16 00:04:21;;;;;;;;;;;;;;;-144.99;100.00;52478.66;5376648;26;19966;-66
2024/04/16 00:06:52;;;;;;;;;;;;;;;-144.99;100.00;52488.84;5361145;26;20364;-66
2024/04/16 00:09:18;;;;;;;;;;;;;;;-144.99;100.00;52478.66;5374025;26;20279;-69
2024/04/16 00:11:46;;;;;;;;;;;;;;;-144.99;100.00;52444.03;5361874;26;20517;-66
2024/04/16 00:14:12;;;;;;;;;;;;;;;-144.99;100.00;52501.09;5369950;26;19930;-68
2024/04/16 00:16:41;;;;;;;;;;;;;;;-144.99;100.00;52480.72;5376303;26;19999;-66
2024/04/16 00:19:07;;;;;;;;;;;;;;;-144.99;100.00;52488.84;5376199;26;20259;-66
2024/04/16 00:21:35;;;;;;;;;;;;;;;-144.99;100.00;52456.25;5372625;26;19929;-65
2024/04/16 00:24:04;;;;;;;;;;;;;;;-144.99;100.00;52448.09;5366412;26;20271;-65
2024/04/16 00:26:32;;;;;;;;;;;;;;;-144.99;100.00;52476.63;5363850;26;19929;-66
2024/04/16 00:28:58;;;;;;;;;;;;;;;-144.99;100.00;52464.41;5374184;26;19937;-67
2024/04/16 00:31:27;;;;;;;;;;;;;;;-144.99;100.00;52464.41;5375944;26;19941;-66
2024/04/16 00:33:53;;;;;;;;;;;;;;;-144.99;100.00;52460.31;5369528;26;19942;-66
2024/04/16 00:36:21;;;;;;;;;;;;;;;-144.99;100.00;52448.09;5375365;26;20453;-67
2024/04/16 00:38:47;;;;;;;;;;;;;;;-144.99;100.00;52464.41;5372490;26;19940;-66
2024/04/16 00:41:18;;;;;;;;;;;;;;;-144.99;100.00;52464.41;5365849;26;19942;-67
2024/04/16 00:43:44;;;;;;;;;;;;;;;-144.99;100.00;52488.84;5377951;26;20070;-69
2024/04/16 00:46:14;;;;;;;;;;;;;;;-144.99;100.00;52480.72;5370902;26;20331;-70
2024/04/16 00:48:40;;;;;;;;;;;;;;;-144.99;100.00;52462.34;5375966;26;19937;-69
2024/04/16 00:51:09;;;;;;;;;;;;;;;-144.99;100.00;52513.31;5375271;26;19936;-69
2024/04/16 00:53:36;;;;;;;;;;;;;;;-144.99;100.00;52468.47;5361877;26;19929;-71
2024/04/16 00:56:05;;;;;;;;;;;;;;;-144.99;100.00;52456.25;5372650;26;19930;-70
2024/04/16 00:58:35;;;;;;;;;;;;;;;-144.99;100.00;52448.09;5369183;26;20253;-68
2024/04/16 01:01:03;;;;;;;;;;;;;;;-144.99;100.00;52480.72;5370523;26;19934;-68
2024/04/16 01:03:29;;;;;;;;;;;;;;;-144.99;100.00;52505.16;5366407;26;19979;-68
2024/04/16 01:05:58;;;;;;;;;;;;;;;-144.99;100.00;52464.41;5372963;26;19934;-70
2024/04/16 01:08:24;;;;;;;;;;;;;;;-144.99;100.00;52456.25;5373582;26;19937;-69
2024/04/16 01:10:52;;;;;;;;;;;;;;;-144.99;100.00;52476.63;5375215;26;19937;-69
2024/04/16 01:13:18;;;;;;;;;;;;;;;-144.99;100.00;52439.94;5375632;26;19937;-69
2024/04/16 01:15:50;;;;;;;;;;;;;;;-144.99;100.00;52484.78;5373890;26;19929;-70
2024/04/16 01:18:16;;;;;;;;;;;;;;;-144.99;100.00;52464.41;5378709;26;19929;-71
2024/04/16 01:20:44;;;;;;;;;;;;;;;-144.99;100.00;52501.09;5382149;26;19976;-69
2024/04/16 01:23:13;;;;;;;;;;;;;;;-144.99;100.00;52480.72;5374745;26;19929;-68
2024/04/16 01:25:41;;;;;;;;;;;;;;;-144.99;100.00;52464.41;5372425;26;19929;-67
2024/04/16 01:28:07;;;;;;;;;;;;;;;-144.99;100.00;52488.84;5372951;26;19930;-68
2024/04/16 01:30:36;;;;;;;;;;;;;;;-144.99;100.00;52448.09;5372190;26;19936;-69
2024/04/16 01:33:02;;;;;;;;;;;;;;;-144.99;100.00;52464.41;5375172;26;19934;-66
2024/04/16 01:35:30;;;;;;;;;;;;;;;-144.99;100.00;52480.72;5370561;26;19929;-68
2024/04/16 01:37:56;;;;;;;;;;;;;;;-144.99;100.00;52454.22;5366403;26;19930;-68
2024/04/16 01:40:27;;;;;;;;;;;;;;;-144.99;100.00;52470.50;5374897;26;20312;-68
2024/04/16 01:42:53;;;;;;;;;;;;;;;-144.99;100.00;52452.16;5389956;26;19936;-72
2024/04/16 01:45:22;;;;;;;;;;;;;;;-144.99;100.00;52460.31;5375353;26;20326;-67
2024/04/16 01:47:48;;;;;;;;;;;;;;;-144.99;100.00;52497.00;5372563;26;20320;-69
2024/04/16 01:50:16;;;;;;;;;;;;;;;-144.99;100.00;52460.31;5388626;26;19933;-66
2024/04/16 01:52:42;;;;;;;;;;;;;;;-144.99;100.00;52448.09;5374453;26;19979;-64
2024/04/16 01:55:10;;;;;;;;;;;;;;;-144.99;100.00;52458.28;5374265;26;20415;-65
2024/04/16 01:57:39;;;;;;;;;;;;;;;-144.99;100.00;52484.78;5375179;26;19930;-68
2024/04/16 02:00:08;;;;;;;;;;;;;;;-144.99;100.00;52468.47;5370092;26;19929;-68
2024/04/16 02:02:35;;;;;;;;;;;;;;;-144.99;100.00;52476.63;5364641;26;19929;-68
2024/04/16 02:05:04;;;;;;;;;;;;;;;-144.99;100.00;52484.78;5371380;26;19936;-68
2024/04/16 02:07:30;;;;;;;;;;;;;;;-144.99;100.00;52480.72;5362683;26;19930;-67
2024/04/16 02:09:58;;;;;;;;;;;;;;;-144.99;100.00;52444.03;5372779;26;19944;-67
2024/04/16 02:12:24;;;;;;;;;;;;;;;-144.99;100.00;52468.47;5389789;26;19931;-68
2024/04/16 02:14:56;;;;;;;;;;;;;;;-144.99;100.00;52452.16;5377763;26;19948;-68
2024/04/16 02:17:23;;;;;;;;;;;;;;;-144.99;100.00;52431.78;5364872;26;20392;-68
2024/04/16 02:19:52;;;;;;;;;;;;;;;-144.99;100.00;52456.25;5363607;26;19966;-68
2024/04/16 02:22:18;;;;;;;;;;;;;;;-144.99;100.00;52476.63;5366753;26;20349;-68
2024/04/16 02:24:46;;;;;;;;;;;;;;;-144.99;100.00;52466.44;5364060;26;19937;-69
2024/04/16 02:27:12;;;;;;;;;;;;;;;-144.99;100.00;52492.94;5364168;26;19929;-69
2024/04/16 02:29:40;;;;;;;;;;;;;;;-144.99;100.00;52488.84;5359642;26;19930;-67
2024/04/16 02:32:09;;;;;;;;;;;;;;;-144.99;100.00;52472.56;5369394;26;20355;-70
2024/04/16 02:34:38;;;;;;;;;;;;;;;-144.99;100.00;52452.16;5373441;26;19936;-71
2024/04/16 02:37:04;;;;;;;;;;;;;;;-144.99;100.00;52509.25;5371596;26;20426;-68
2024/04/16 02:39:32;;;;;;;;;;;;;;;-144.99;100.00;52464.41;5368224;26;20238;-66
2024/04/16 02:41:59;;;;;;;;;;;;;;;-144.99;100.00;52501.09;5363905;26;20275;-68
2024/04/16 02:44:27;;;;;;;;;;;;;;;-144.99;100.00;52480.72;5374215;26;19968;-69
2024/04/16 02:46:53;;;;;;;;;;;;;;;-144.99;100.00;52480.72;5358969;26;19929;-69
2024/04/16 02:49:24;;;;;;;;;;;;;;;-144.99;100.00;52501.09;5361563;26;19937;-68
2024/04/16 02:51:50;;;;;;;;;;;;;;;-144.99;100.00;52476.63;5373035;26;20040;-68
2024/04/16 02:54:19;;;;;;;;;;;;;;;-144.99;100.00;52460.31;5373121;26;19942;-67
2024/04/16 02:56:45;;;;;;;;;;;;;;;-144.99;100.00;52488.84;5368560;26;20538;-68
2024/04/16 02:59:13;;;;;;;;;;;;;;;-144.99;100.00;52464.41;5369553;26;19930;-67
2024/04/16 03:01:39;;;;;;;;;;;;;;;-144.99;100.00;52497.00;5374652;26;19929;-71
2024/04/16 03:04:08;;;;;;;;;;;;;;;-144.99;100.00;52452.16;5374038;26;20007;-67
2024/04/16 03:06:36;;;;;;;;;;;;;;;-144.99;100.00;52484.78;5367518;26;19934;-69
2024/04/16 03:09:05;;;;;;;;;;;;;;;-144.99;100.00;52415.47;5372953;26;19930;-70
2024/04/16 03:11:31;;;;;;;;;;;;;;;-144.99;100.00;52456.25;5362309;26;20343;-67
2024/04/16 03:14:00;;;;;;;;;;;;;;;-144.99;100.00;52464.41;5366285;26;19941;-67
2024/04/16 03:16:26;;;;;;;;;;;;;;;-144.99;100.00;52480.72;5375609;26;20000;-67
2024/04/16 03:18:55;;;;;;;;;;;;;;;-144.99;100.00;52476.63;5377014;26;20044;-68
2024/04/16 03:21:21;;;;;;;;;;;;;;;-144.99;100.00;52458.28;5374541;26;19937;-68
2024/04/16 03:23:53;;;;;;;;;;;;;;;-144.99;100.00;52460.31;5375690;26;19930;-67
2024/04/16 03:26:19;;;;;;;;;;;;;;;-144.99;100.00;52529.63;5390810;26;19936;-67
2024/04/16 03:28:48;;;;;;;;;;;;;;;-144.99;100.00;52460.31;5377037;26;19930;-67
2024/04/16 03:31:14;;;;;;;;;;;;;;;-144.99;100.00;52499.06;5371893;26;19940;-65
2024/04/16 03:33:42;;;;;;;;;;;;;;;-144.99;100.00;52501.09;5375556;26;20395;-65
2024/04/16 03:36:08;;;;;;;;;;;;;;;-144.99;100.00;52492.94;5376695;26;19930;-64
2024/04/16 03:38:37;;;;;;;;;;;;;;;-144.99;100.00;52488.84;5372807;26;19937;-65
2024/04/16 03:41:08;;;;;;;;;;;;;;;-144.99;100.00;52444.03;5366839;26;19930;-64
2024/04/16 03:43:37;;;;;;;;;;;;;;;-144.99;100.00;52478.66;5372576;26;19930;-64
2024/04/16 03:46:04;;;;;;;;;;;;;;;-144.99;100.00;52476.63;5333798;26;19937;-64
2024/04/16 03:48:32;;;;;;;;;;;;;;;-144.99;100.00;52480.72;5371582;26;19937;-65
2024/04/16 03:50:58;;;;;;;;;;;;;;;-144.99;100.00;52492.94;5357471;26;20196;-66
2024/04/16 03:53:27;;;;;;;;;;;;;;;-144.99;100.00;52417.53;5359516;26;19954;-66
2024/04/16 03:55:58;;;;;;;;;;;;;;;-144.99;100.00;52452.16;5374801;26;19937;-65
2024/04/16 03:58:29;;;;;;;;;;;;;;;-144.99;100.00;52452.16;5370246;26;19929;-72
2024/04/16 04:01:03;;;;;;;;;;;;;;;-144.99;100.00;52464.41;5377671;26;20289;-72
2024/04/16 04:03:32;;;;;;;;;;;;;;;-144.99;100.00;52458.28;5377787;26;19937;-72
2024/04/16 04:05:58;;;;;;;;;;;;;;;-144.99;100.00;52444.03;5377287;26;19934;-66
2024/04/16 04:08:26;;;;;;;;;;;;;;;-144.99;100.00;52482.75;5376212;26;20464;-66
2024/04/16 04:10:52;;;;;;;;;;;;;;;-144.99;100.00;52456.25;5376349;26;19929;-74
2024/04/16 04:13:21;;;;;;;;;;;;;;;-144.99;100.00;52446.06;5361891;26;19936;-74
2024/04/16 04:15:49;;;;;;;;;;;;;;;-144.99;100.00;52501.09;5364165;26;19933;-65
2024/04/16 04:18:18;;;;;;;;;;;;;;;-144.99;100.00;52462.34;5374244;26;19937;-70
2024/04/16 04:20:46;;;;;;;;;;;;;;;-144.99;100.00;52444.03;5376642;26;19930;-70
2024/04/16 04:23:14;;;;;;;;;;;;;;;-144.99;100.00;52454.22;5375692;26;20346;-69
2024/04/16 04:25:40;;;;;;;;;;;;;;;-144.99;100.00;52472.56;5373131;26;19930;-69
2024/04/16 04:28:09;;;;;;;;;;;;;;;-144.99;100.00;52484.78;5375038;26;20344;-70
2024/04/16 04:30:35;;;;;;;;;;;;;;;-144.99;100.00;52488.84;5377106;26;19929;-69
2024/04/16 04:33:06;;;;;;;;;;;;;;;-144.99;100.00;52444.03;5376115;26;20320;-68
2024/04/16 04:35:32;;;;;;;;;;;;;;;-144.99;100.00;52480.72;5361581;26;19930;-61
2024/04/16 04:38:00;;;;;;;;;;;;;;;-144.99;100.00;52476.63;5372400;26;20465;-65
2024/04/16 04:40:26;;;;;;;;;;;;;;;-144.99;100.00;52456.25;5372411;26;19960;-65
2024/04/16 04:42:55;;;;;;;;;;;;;;;-144.99;100.00;52472.56;5374967;26;19941;-66
2024/04/16 04:45:21;;;;;;;;;;;;;;;-144.99;100.00;52480.72;5372025;26;19965;-65
2024/04/16 04:47:49;;;;;;;;;;;;;;;-144.99;100.00;52488.84;5366598;26;20049;-65
2024/04/16 04:50:18;;;;;;;;;;;;;;;-144.99;100.00;52476.63;5363726;26;19933;-66
2024/04/16 04:52:46;;;;;;;;;;;;;;;-144.99;100.00;52460.31;5353936;26;20400;-66
2024/04/16 04:55:12;;;;;;;;;;;;;;;-144.99;100.00;52480.72;5374696;26;19938;-66
2024/04/16 04:57:41;;;;;;;;;;;;;;;-144.99;100.00;52466.44;5371412;26;20317;-65
2024/04/16 05:00:08;;;;;;;;;;;;;;;-144.99;100.00;52486.81;5375901;26;19930;-66
2024/04/16 05:02:37;;;;;;;;;;;;;;;-144.99;100.00;52439.94;5367005;26;19936;-65
2024/04/16 05:05:03;;;;;;;;;;;;;;;-144.99;100.00;52472.56;5372600;26;19940;-69
2024/04/16 05:07:34;;;;;;;;;;;;;;;-144.99;99.97;52468.47;5368501;26;19937;-69
2024/04/16 05:10:01;;;;;;;;;;;;;;;-144.99;99.69;52439.94;5367923;26;19933;-73
2024/04/16 05:12:29;;;;;;;;;;;;;;;-144.99;99.86;52435.88;5372216;26;20256;-70
2024/04/16 05:14:56;;;;;;;;;;;;;;;-144.99;99.53;52444.03;5371711;26;20008;-70
2024/04/16 05:17:25;;;;;;;;;;;;;;;-144.99;99.55;52464.41;5368492;26;20296;-72
2024/04/16 05:19:51;;;;;;;;;;;;;;;-144.99;99.75;52462.34;5368350;26;20276;-70
2024/04/16 05:22:20;;;;;;;;;;;;;;;-144.99;100.00;52501.09;5370756;26;19938;-70
2024/04/16 05:24:48;;;;;;;;;;;;;;;-144.99;99.76;52458.28;5369207;26;19929;-74
2024/04/16 05:27:17;;;;;;;;;;;;;;;-144.99;99.74;52482.75;5367585;26;20272;-71
2024/04/16 05:29:43;;;;;;;;;;;;;;;-144.99;100.00;52497.00;5370168;26;19936;-71
2024/04/16 05:32:13;;;;;;;;;;;;;;;-144.99;99.55;52464.41;5370615;26;19938;-71
2024/04/16 05:34:39;;;;;;;;;;;;;;;-144.99;99.53;52480.72;5370323;26;19929;-73
2024/04/16 05:37:08;;;;;;;;;;;;;;;-144.99;99.66;52515.34;5367313;26;20007;-72
2024/04/16 05:39:33;;;;;;;;;;;;;;;-144.99;99.73;52464.41;5369515;26;19937;-72
2024/04/16 05:42:05;;;;;;;;;;;;;;;-144.99;99.64;52450.13;5369762;26;19937;-72
2024/04/16 05:44:31;;;;;;;;;;;;;;;-144.99;100.00;52452.16;5370993;26;19933;-76
2024/04/16 05:46:59;;;;;;;;;;;;;;;-144.99;100.00;52439.94;5368727;26;19930;-72
2024/04/16 05:49:25;;;;;;;;;;;;;;;-144.99;100.00;52480.72;5370236;26;19930;-69
2024/04/16 05:51:54;;;;;;;;;;;;;;;-144.99;100.00;52456.25;5369156;26;20102;-68
2024/04/16 05:54:20;;;;;;;;;;;;;;;-144.99;100.00;52464.41;5371280;26;19936;-66
2024/04/16 05:56:49;;;;;;;;;;;;;;;-144.99;100.00;52484.78;5369207;26;19967;-66
2024/04/16 05:59:17;;;;;;;;;;;;;;;-144.99;100.00;52468.47;5365128;26;20449;-66
2024/04/16 06:01:46;;;;;;;;;;;;;;;-144.99;100.00;52456.25;5366718;26;19979;-66
2024/04/16 06:04:12;;;;;;;;;;;;;;;-144.99;100.00;52484.78;5369024;26;19994;-66
2024/04/16 06:06:40;;;;;;;;;;;;;;;-144.99;100.00;52456.25;5368979;26;19945;-66
2024/04/16 06:09:06;;;;;;;;;;;;;;;-144.99;100.00;52468.47;5368810;26;20359;-67
2024/04/16 06:11:35;;;;;;;;;;;;;;;-144.99;100.00;52427.72;5365393;26;20011;-67
2024/04/16 06:14:01;;;;;;;;;;;;;;;-144.99;100.00;52460.31;5368559;26;19934;-67
2024/04/16 06:16:32;;;;;;;;;;;;;;;-144.99;100.00;52427.72;5381698;21;19947;-75
2024/04/16 06:18:58;;;;;;;;;;;;;;;-144.99;100.00;52448.09;5402744;26;20002;-78
2024/04/16 06:21:28;;;;;;;;;;;;;;;-144.99;99.99;52458.28;5401963;26;20282;-78
2024/04/16 06:23:54;;;;;;;;;;;;;;;-144.99;100.00;52468.47;5404365;26;19933;-78
2024/04/16 06:26:23;;;;;;;;;;;;;;;-144.99;99.71;52450.13;5405627;26;19929;-78
2024/04/16 06:28:48;;;;;;;;;;;;;;;-144.99;99.76;52478.66;5405653;26;19936;-79
2024/04/16 06:31:17;;;;;;;;;;;;;;;-144.99;99.49;52441.97;5402168;26;19961;-79
2024/04/16 06:33:45;;;;;;;;;;;;;;;-144.99;99.89;52444.03;5401915;26;19979;-77
2024/04/16 06:36:14;;;;;;;;;;;;;;;-144.99;99.15;52501.09;5403561;26;19936;-76
2024/04/16 06:38:40;;;;;;;;;;;;;;;-144.99;98.92;52417.53;5404842;26;19929;-76
2024/04/16 06:41:08;;;;;;;;;;;;;;;-144.99;98.87;52476.63;5403828;26;20005;-77
2024/04/16 06:43:34;;;;;;;;;;;;;;;-144.99;99.14;52429.75;5370400;26;19933;-77
2024/04/16 06:46:03;;;;;;;;;;;;;;;-144.99;98.61;52448.09;5404778;26;20272;-78
2024/04/16 06:48:30;;;;;;;;;;;;;;;-144.99;98.72;52460.31;5402329;26;19941;-77
2024/04/16 06:51:01;;;;;;;;;;;;;;;-144.99;98.16;52437.91;5406184;26;19937;-79
2024/04/16 06:53:27;;;;;;;;;;;;;;;-144.99;97.50;52433.81;5403020;26;19953;-78
2024/04/16 06:56:03;;;;;;;;;;;;;;;-144.99;97.66;52468.47;5406433;26;19958;-79
2024/04/16 06:58:29;;;;;;;;;;;;;;;-144.99;97.24;52480.72;5409532;26;19943;-79
2024/04/16 07:00:58;;;;;;;;;;;;;;;-144.99;96.78;52472.56;5412822;26;20008;-80
2024/04/16 07:03:24;;;;;;;;;;;;;;;-144.99;96.83;52464.41;5407423;26;19929;-79
2024/04/16 07:05:52;;;;;;;;;;;;;;;-144.99;96.90;52448.09;5409348;26;19929;-78
2024/04/16 07:08:22;;;;;;;;;;;;;;;-144.99;96.86;52417.53;5408748;26;20333;-80
2024/04/16 07:10:51;;;;;;;;;;;;;;;-144.99;96.83;52456.25;5410919;26;19929;-79
2024/04/16 07:13:17;;;;;;;;;;;;;;;-144.99;96.81;52429.75;5408513;26;19944;-80
2024/04/16 07:15:45;;;;;;;;;;;;;;;-144.99;96.50;52468.47;5407700;26;19941;-77
2024/04/16 07:18:11;;;;;;;;;;;;;;;-144.99;95.81;52444.03;5411735;26;19929;-79
2024/04/16 07:20:40;;;;;;;;;;;;;;;-144.99;96.59;52431.78;5410248;26;20406;-78
2024/04/16 07:23:06;;;;;;;;;;;;;;;-144.99;96.05;52476.63;5407396;26;19936;-78
2024/04/16 07:25:37;;;;;;;;;;;;;;;-144.99;96.10;52454.22;5406372;26;19940;-78
2024/04/16 07:28:03;;;;;;;;;;;;;;;-144.99;96.62;52460.31;5403083;26;19929;-78
2024/04/16 07:30:31;;;;;;;;;;;;;;;-144.99;96.01;52460.31;5406886;26;19937;-78
2024/04/16 07:32:57;;;;;;;;;;;;;;;-144.99;95.73;52488.84;5407236;26;20310;-77
2024/04/16 07:35:28;;;;;;;;;;;;;;;-144.99;95.67;52439.94;5404747;26;19937;-78
2024/04/16 07:37:53;;;;;;;;;;;;;;;-144.99;95.56;52456.25;5404527;26;19936;-77
2024/04/16 07:40:22;;;;;;;;;;;;;;;-144.99;96.01;52468.47;5404829;26;19943;-77
2024/04/16 07:42:51;;;;;;;;;;;;;;;-144.99;95.92;52464.41;5408626;26;19929;-78
2024/04/16 07:45:19;;;;;;;;;;;;;;;-144.99;95.93;52456.25;5407339;26;19943;-76
2024/04/16 07:47:45;;;;;;;;;;;;;;;-144.99;95.90;52484.78;5407184;26;19937;-76
2024/04/16 07:50:14;;;;;;;;;;;;;;;-144.99;96.07;52454.22;5403295;26;19956;-78
2024/04/16 07:52:39;;;;;;;;;;;;;;;-144.99;95.83;52431.78;5406632;26;20269;-79
2024/04/16 07:55:08;;;;;;;;;;;;;;;-144.99;95.57;52452.16;5406729;26;19937;-79
2024/04/16 07:57:34;;;;;;;;;;;;;;;-144.99;95.47;52476.63;5412649;26;20671;-80
2024/04/16 08:00:05;;;;;;;;;;;;;;;-144.99;94.85;52423.63;5412400;26;19929;-76
2024/04/16 08:02:31;;;;;;;;;;;;;;;-144.99;94.82;52435.88;5412445;26;19952;-78
2024/04/16 08:05:00;;;;;;;;;;;;;;;-144.99;94.74;52470.50;5403563;26;20336;-76
2024/04/16 08:07:25;;;;;;;;;;;;;;;-144.99;94.34;52427.72;5412422;26;19944;-78
2024/04/16 08:09:54;;;;;;;;;;;;;;;-144.99;94.06;52439.94;5407625;26;19953;-78
2024/04/16 08:12:20;;;;;;;;;;;;;;;-144.99;93.66;52415.47;5412285;26;19929;-76
2024/04/16 08:14:48;;;;;;;;;;;;;;;-144.99;93.10;52439.94;5407555;26;20013;-78
2024/04/16 08:17:19;;;;;;;;;;;;;;;-144.99;93.61;52472.56;5409327;26;19937;-79
2024/04/16 08:19:47;;;;;;;;;;;;;;;-144.99;94.05;52441.97;5407371;26;19929;-79
2024/04/16 08:22:13;;;;;;;;;;;;;;;-144.99;93.60;52470.50;5406965;26;19929;-79
2024/04/16 08:24:42;;;;;;;;;;;;;;;-144.99;93.78;52476.63;5404246;26;19937;-81
2024/04/16 08:27:08;;;;;;;;;;;;;;;-144.99;93.87;52468.47;5406211;26;19974;-78
2024/04/16 08:29:36;;;;;;;;;;;;;;;-144.99;93.83;52452.16;5406545;26;19940;-76
2024/04/16 08:32:02;;;;;;;;;;;;;;;-144.99;93.87;52431.78;5410924;26;19935;-78
2024/04/16 08:34:38;;;;;;;;;;;;;;;-144.99;93.42;52472.56;5411535;26;19929;-77
2024/04/16 08:37:04;;;;;;;;;;;;;;;-144.99;92.90;52468.47;5408838;26;20364;-78
2024/04/16 08:39:32;;;;;;;;;;;;;;;-144.99;92.17;52407.31;5411443;26;19962;-78
2024/04/16 08:41:59;;;;;;;;;;;;;;;-144.99;91.70;52423.63;5411876;26;19929;-77
2024/04/16 08:44:28;;;;;;;;;;;;;;;-144.99;92.01;52431.78;5373334;26;19957;-79
2024/04/16 08:46:54;;;;;;;;;;;;;;;-144.99;91.41;52454.22;5407278;26;19933;-77
2024/04/16 08:49:23;;;;;;;;;;;;;;;-144.99;90.46;52431.78;5408336;26;20269;-77
2024/04/16 08:51:54;;;;;;;;;;;;;;;-144.99;89.35;52433.81;5398470;26;19933;-77
2024/04/16 08:54:24;;;;;;;;;;;;;;;-144.99;88.71;52454.22;5410517;26;19936;-78
2024/04/16 08:56:50;;;;;;;;;;;;;;;-144.99;88.19;52427.72;5401695;26;19929;-77
2024/04/16 08:59:19;;;;;;;;;;;;;;;-144.99;87.60;52448.09;5409104;26;19929;-77
2024/04/16 09:01:47;;;;;;;;;;;;;;;-144.99;87.74;52444.03;5407500;26;19929;-78
2024/04/16 09:04:18;;;;;;;;;;;;;;;-144.99;89.14;52427.72;5408738;26;19968;-78
2024/04/16 09:06:44;;;;;;;;;;;;;;;-144.99;88.58;52425.66;5410516;26;19936;-77
2024/04/16 09:09:15;;;;;;;;;;;;;;;-144.99;88.11;52366.56;5407798;26;19962;-77
2024/04/16 09:11:43;;;;;;;;;;;;;;;-144.99;88.21;52417.53;5390652;26;20288;-77
2024/04/16 09:14:12;;;;;;;;;;;;;;;-144.99;87.55;52439.94;5405179;26;19929;-77
2024/04/16 09:16:38;;;;;;;;;;;;;;;-144.99;86.12;52366.56;5395547;26;19933;-78
2024/04/16 09:19:10;;;;;;;;;;;;;;;-144.99;84.73;52395.09;5396634;26;19929;-78
2024/04/16 09:21:36;;;;;;;;;;;;;;;-144.99;84.03;52393.06;5393094;26;19929;-76
2024/04/16 09:24:05;;;;;;;;;;;;;;;-144.99;83.52;52407.31;5399216;26;19961;-78
2024/04/16 09:26:36;;;;;;;;;;;;;;;-144.99;83.69;52415.47;5408512;26;19967;-77
2024/04/16 09:29:05;;;;;;;;;;;;;;;-144.99;84.48;52407.31;5403777;26;19963;-77
2024/04/16 09:31:31;;;;;;;;;;;;;;;-144.99;83.80;52401.22;5411597;26;20060;-78
2024/04/16 09:34:11;;;;;;;;;;;;;;;-144.99;83.75;52407.31;5410723;26;19929;-75
2024/04/16 09:36:46;;;;;;;;;;;;;;;-144.99;83.15;52415.47;5401119;26;19936;-77
2024/04/16 09:39:19;;;;;;;;;;;;;;;-144.99;83.33;52488.84;5412901;26;19929;-76
2024/04/16 09:41:50;;;;;;;;;;;;;;;-144.99;82.69;52427.72;5399942;26;19936;-76
2024/04/16 09:44:16;;;;;;;;;;;;;;;-144.99;82.99;52456.25;5403719;26;19930;-78
2024/04/16 09:46:47;;;;;;;;;;;;;;;-144.99;83.41;52407.31;5399817;26;19933;-78
2024/04/16 09:49:15;;;;;;;;;;;;;;;-144.99;82.80;52427.72;5410197;26;20341;-77
2024/04/16 09:51:42;;;;;;;;;;;;;;;-144.99;83.62;52431.78;5410601;26;19929;-77
2024/04/16 09:54:11;;;;;;;;;;;;;;;-144.99;83.08;52439.94;5397780;26;20379;-77
2024/04/16 09:56:38;;;;;;;;;;;;;;;-144.99;82.13;52419.56;5407106;26;19936;-76
2024/04/16 09:59:10;;;;;;;;;;;;;;;-144.99;81.49;52407.31;5407635;26;20339;-77
2024/04/16 10:01:36;;;;;;;;;;;;;;;-144.99;80.43;52419.56;5407653;26;19929;-76
2024/04/16 10:04:05;;;;;;;;;;;;;;;-144.99;80.64;52435.88;5405819;26;19940;-76
2024/04/16 10:06:31;;;;;;;;;;;;;;;-144.99;80.36;52431.78;5412358;26;19940;-77
2024/04/16 10:08:59;;;;;;;;;;;;;;;-144.99;80.48;52444.03;5407798;26;20432;-76
2024/04/16 10:11:25;;;;;;;;;;;;;;;-144.99;80.18;52415.47;5400166;26;19929;-76
2024/04/16 10:13:54;;;;;;;;;;;;;;;-144.99;80.08;52391.03;5403509;26;19944;-78
2024/04/16 10:16:23;;;;;;;;;;;;;;;-144.99;80.74;52429.75;5411878;26;20277;-77
2024/04/16 10:18:55;;;;;;;;;;;;;;;-144.99;81.26;52446.06;5412157;26;19936;-77
2024/04/16 10:21:22;;;;;;;;;;;;;;;-144.99;80.92;52435.88;5406672;26;20056;-78
2024/04/16 10:23:51;;;;;;;;;;;;;;;-144.99;80.92;52427.72;5398252;26;19933;-79
2024/04/16 10:26:19;;;;;;;;;;;;;;;-144.99;81.44;52407.31;5407639;26;21791;-77
2024/04/16 10:28:57;;;;;;;;;;;;;;;-144.99;81.12;52446.06;5421978;26;19965;-80
2024/04/16 10:31:30;;;;;;;;;;;;;;;-144.99;81.85;52431.78;5408268;26;20276;-78
2024/04/16 10:34:02;;;;;;;;;;;;;;;-144.99;82.27;52427.72;5413597;26;19998;-79
2024/04/16 10:36:28;;;;;;;;;;;;;;;-144.99;82.14;52423.63;5402955;26;20365;-79
2024/04/16 10:38:57;;;;;;;;;;;;;;;-144.99;81.52;52399.19;5411285;26;20454;-80
2024/04/16 10:41:27;;;;;;;;;;;;;;;-144.99;80.20;52374.72;5402105;26;21145;-78
2024/04/16 10:43:56;;;;;;;;;;;;;;;-144.99;80.81;52358.41;5408966;26;19928;-81
2024/04/16 10:46:22;;;;;;;;;;;;;;;-144.99;78.62;52382.88;5408424;26;19929;-80
2024/04/16 10:48:54;;;;;;;;;;;;;;;-144.99;78.01;52382.88;5415551;26;19929;-80
2024/04/16 10:51:19;;;;;;;;;;;;;;;-144.99;77.74;52397.13;5416078;26;19929;-79
2024/04/16 10:53:48;;;;;;;;;;;;;;;-144.99;77.32;52374.72;5414378;26;20444;-79
2024/04/16 10:56:14;;;;;;;;;;;;;;;-144.99;74.53;52366.56;5409559;26;19933;-77
2024/04/16 10:58:44;;;;;;;;;;;;;;;-144.99;72.58;52382.88;5403296;26;19936;-80
2024/04/16 11:01:10;;;;;;;;;;;;;;;-144.99;70.84;52370.63;5407294;26;20368;-81
2024/04/16 11:03:38;;;;;;;;;;;;;;;-144.99;69.83;52382.88;5395405;26;19966;-80
2024/04/16 11:06:07;;;;;;;;;;;;;;;-144.99;69.71;52366.56;5403025;26;19928;-81
2024/04/16 11:08:36;;;;;;;;;;;;;;;-144.99;68.98;52362.50;5411281;26;19946;-80
2024/04/16 11:11:03;;;;;;;;;;;;;;;-144.99;68.83;52386.94;5413811;26;19929;-79
2024/04/16 11:13:32;;;;;;;;;;;;;;;-144.99;68.09;52350.25;5400165;26;19936;-76
2024/04/16 11:15:58;;;;;;;;;;;;;;;-144.99;67.93;52403.25;5413733;26;19931;-78
2024/04/16 11:18:30;;;;;;;;;;;;;;;-144.99;67.19;52409.38;5415625;26;19936;-80
2024/04/16 11:20:56;;;;;;;;;;;;;;;-144.99;67.35;52395.09;5410897;26;19997;-79
2024/04/16 11:23:27;;;;;;;;;;;;;;;-144.99;67.57;52382.88;5411536;26;19936;-77
2024/04/16 11:25:53;;;;;;;;;;;;;;;-144.99;69.38;52423.63;5414474;26;19936;-79
2024/04/16 11:28:21;;;;;;;;;;;;;;;-144.99;78.17;52419.56;5419287;26;19936;-79
2024/04/16 11:30:53;;;;;;;;;;;;;;;-144.99;82.92;52419.56;5420746;26;19936;-81
2024/04/16 11:33:22;;;;;;;;;;;;;;;-144.99;85.88;52435.88;5428740;26;19949;-80
2024/04/16 11:35:48;;;;;;;;;;;;;;;-144.99;86.48;52431.78;5407724;26;19930;-82
2024/04/16 11:38:20;;;;;;;;;;;;;;;-144.99;87.79;52403.25;5421453;26;19936;-82
2024/04/16 11:40:48;;;;;;;;;;;;;;;-144.99;88.98;52435.88;5415850;26;19937;-82
2024/04/16 11:43:17;;;;;;;;;;;;;;;-144.99;88.39;52378.78;5416683;26;19936;-81
2024/04/16 11:45:43;;;;;;;;;;;;;;;-144.99;88.20;52427.72;5409168;26;20368;-81
2024/04/16 11:48:13;;;;;;;;;;;;;;;-144.99;87.95;52435.88;5404412;26;19937;-82
2024/04/16 11:50:38;;;;;;;;;;;;;;;-144.99;87.83;52448.09;5415703;26;19929;-83
2024/04/16 11:53:07;;;;;;;;;;;;;;;-144.99;87.55;52411.41;5416483;26;19941;-84
2024/04/16 11:55:33;;;;;;;;;;;;;;;-144.99;87.32;52407.31;5416971;26;19929;-82
2024/04/16 11:58:04;;;;;;;;;;;;;;;-144.99;86.19;52419.56;5413295;26;19995;-78
2024/04/16 12:00:30;;;;;;;;;;;;;;;-144.99;85.33;52454.22;5409437;26;19936;-82
2024/04/16 12:02:58;;;;;;;;;;;;;;;-144.99;84.05;52401.22;5418548;26;19937;-83
2024/04/16 12:05:24;;;;;;;;;;;;;;;-144.99;84.44;52423.63;5412715;26;19921;-84
2024/04/16 12:07:52;;;;;;;;;;;;;;;-144.99;83.61;52378.78;5414924;26;19929;-79
2024/04/16 12:10:18;;;;;;;;;;;;;;;-144.99;82.96;52399.19;5410300;26;20380;-79
2024/04/16 12:12:47;;;;;;;;;;;;;;;-144.99;82.69;52427.72;5394731;26;19997;-79
2024/04/16 12:15:16;;;;;;;;;;;;;;;-144.99;82.00;52435.88;5401109;26;20396;-80
2024/04/16 12:17:45;;;;;;;;;;;;;;;-144.99;82.50;52446.06;5410940;26;19940;-79
2024/04/16 12:20:10;;;;;;;;;;;;;;;-144.99;82.86;52415.47;5396877;26;19940;-76
2024/04/16 12:22:39;;;;;;;;;;;;;;;-144.99;82.54;52435.88;5406796;26;20392;-77
2024/04/16 12:25:05;;;;;;;;;;;;;;;-144.99;83.42;52419.56;5405657;26;19933;-79
2024/04/16 12:27:33;;;;;;;;;;;;;;;-144.99;84.43;52423.63;5402801;26;20521;-80